Lester Prairie, Minnesota
Current Conditions -  °F | °C
As of 6:34 PM on Wednesday 26 Nov 2014 (Local Time) from KGYL Reporting Station
Broken Clouds Broken Clouds  
Wind Chill: 12°   Ceiling: 11000
Heat Index: 21°   Visibility: 10mi
Dew Point: 16°   Wind: 8mph
Humidity: 81%   Direction: 310°NW
Pressure: 30.31"   Gusts: NA
Location:  44.88°N, 94.04°W
Report Text: KGYL 270034Z AUTO 31007KT 10SM BKN110 M06/M09 A3031 RMK AO2 T10601088
Loading
Personal Weather Stations






























Interactive Weather Map New forecast layout! Learn more

10-Day Weather Forecast

Advertisements
Track Severe Weather on mobile